Time;durP1;ratioP1;P1;durP2;ratioP2;P2;SDS_P1;SDS_P2;PMS_P1;PMS_P2;Temp;Humidity;BMP_temperature;BMP_pressure;BME280_temperature;BME280_humidity;BME280_pressure;Samples;Min_cycle;Max_cycle;Signal;HPM_P1;HPM_P2
2023/05/23 00:02:18;;;;;;;7.40;6.60;;;;;;;12.67;67.13;100678.16;105545;1261;97951;-79
2023/05/23 00:05:04;;;;;;;9.90;7.20;;;;;;;12.59;67.42;100676.02;105629;1259;98592;-80
2023/05/23 00:07:49;;;;;;;9.20;6.40;;;;;;;12.53;67.75;100670.72;106128;1263;101354;-80
2023/05/23 00:10:35;;;;;;;7.50;6.60;;;;;;;12.52;67.77;100670.48;106250;1263;100599;-80
2023/05/23 00:13:21;;;;;;;9.20;6.90;;;;;;;12.51;68.01;100673.60;106018;1264;98707;-80
2023/05/23 00:16:08;;;;;;;10.10;7.00;;;;;;;12.48;68.16;100672.10;106052;1260;97889;-80
2023/05/23 00:18:56;;;;;;;11.00;6.90;;;;;;;12.45;68.33;100670.01;106149;1262;97762;-81
2023/05/23 00:21:43;;;;;;;10.70;7.00;;;;;;;12.41;68.47;100667.38;106079;1261;101379;-81
2023/05/23 00:24:28;;;;;;;9.10;7.30;;;;;;;12.38;68.53;100668.48;106043;1258;100297;-79
2023/05/23 00:27:14;;;;;;;8.00;6.30;;;;;;;12.36;68.72;100669.79;105256;1272;97964;-78
2023/05/23 00:29:59;;;;;;;12.40;7.10;;;;;;;12.32;68.83;100668.31;105217;1266;98071;-81
2023/05/23 00:32:45;;;;;;;13.20;6.80;;;;;;;12.25;68.73;100668.39;106019;1263;99240;-81
2023/05/23 00:35:31;;;;;;;10.30;7.60;;;;;;;12.17;69.21;100667.64;105959;1261;101478;-80
2023/05/23 00:38:16;;;;;;;12.50;8.30;;;;;;;12.09;69.55;100667.98;105936;1260;99106;-81
2023/05/23 00:41:02;;;;;;;9.60;7.40;;;;;;;12.04;69.72;100667.20;106197;1260;97957;-80
2023/05/23 00:43:48;;;;;;;11.60;7.30;;;;;;;12.01;69.61;100665.19;106087;1261;97766;-80
2023/05/23 00:46:33;;;;;;;9.40;6.70;;;;;;;11.99;69.37;100666.23;106122;1261;98081;-80
2023/05/23 00:49:20;;;;;;;8.70;6.40;;;;;;;11.91;69.20;100664.03;106063;1258;101907;-81
2023/05/23 00:52:05;;;;;;;8.80;6.70;;;;;;;11.81;69.39;100661.50;106080;1260;99070;-81
2023/05/23 00:54:51;;;;;;;8.40;6.70;;;;;;;11.71;69.37;100661.34;106083;1263;97948;-81
2023/05/23 00:57:43;;;;;;;9.40;7.70;;;;;;;11.64;69.76;100662.65;106028;1260;98024;-81
2023/05/23 01:00:29;;;;;;;9.00;7.20;;;;;;;11.61;70.09;100658.86;105873;1264;98504;-81
2023/05/23 01:03:16;;;;;;;10.10;7.30;;;;;;;11.62;70.24;100656.89;105945;1261;101348;-80
2023/05/23 01:06:02;;;;;;;9.10;7.10;;;;;;;11.62;70.06;100657.27;105854;1263;99070;-81
2023/05/23 01:08:48;;;;;;;9.90;6.90;;;;;;;11.61;70.06;100660.14;105913;1262;97997;-80
2023/05/23 01:11:41;;;;;;;11.50;7.70;;;;;;;11.58;70.02;100663.98;105927;1260;98459;-80
2023/05/23 01:14:37;;;;;;;10.00;7.00;;;;;;;11.55;69.86;100661.56;106006;1266;97826;-80
2023/05/23 01:17:32;;;;;;;12.60;7.80;;;;;;;11.49;69.58;100662.04;106118;1261;101375;-81
2023/05/23 01:20:20;;;;;;;10.70;6.70;;;;;;;11.45;69.62;100661.34;105863;1264;99101;-80
2023/05/23 01:23:40;;;;;;;7.80;6.50;;;;;;;11.38;69.72;100659.52;106051;1264;99019;-81
2023/05/23 01:26:38;;;;;;;12.30;7.10;;;;;;;11.27;70.12;100657.70;105994;1261;97943;-81
2023/05/23 01:29:48;;;;;;;9.50;7.40;;;;;;;11.24;70.54;100658.17;105939;1261;98063;-80
2023/05/23 01:32:36;;;;;;;10.40;7.20;;;;;;;11.23;70.74;100655.81;105934;1264;101341;-81
2023/05/23 01:35:25;;;;;;;8.90;7.00;;;;;;;11.21;70.72;100654.80;105888;1265;100223;-81
2023/05/23 01:38:12;;;;;;;10.00;7.60;;;;;;;11.21;70.60;100649.31;105999;1264;97967;-81
2023/05/23 01:40:58;;;;;;;10.90;7.00;;;;;;;11.17;70.89;100643.16;105999;1260;97970;-80
2023/05/23 01:43:43;;;;;;;10.40;7.90;;;;;;;11.11;71.03;100639.48;105897;1263;98518;-80
2023/05/23 01:46:31;;;;;;;7.60;6.70;;;;;;;11.06;70.99;100639.34;105306;1260;101348;-78
2023/05/23 01:49:18;;;;;;;8.60;6.90;;;;;;;11.04;70.89;100636.59;105288;1264;99737;-78
2023/05/23 01:52:09;;;;;;;9.20;7.50;;;;;;;11.03;70.95;100637.23;105269;1264;98605;-79
2023/05/23 01:54:55;;;;;;;8.60;7.10;;;;;;;11.02;71.18;100635.20;105542;1258;97962;-78
2023/05/23 01:57:43;;;;;;;8.80;7.30;;;;;;;11.01;71.11;100632.84;105333;1264;98591;-80
2023/05/23 02:00:28;;;;;;;10.40;7.60;;;;;;;10.98;71.44;100635.48;105182;1267;101427;-79
2023/05/23 02:03:14;;;;;;;11.20;7.90;;;;;;;10.94;71.75;100636.58;105841;1261;99954;-78
2023/05/23 02:06:00;;;;;;;12.10;8.30;;;;;;;10.90;72.10;100633.48;105181;1260;98011;-79
2023/05/23 02:08:46;;;;;;;10.60;7.80;;;;;;;10.88;72.25;100630.70;105794;1261;97972;-80
2023/05/23 02:11:32;;;;;;;11.40;8.00;;;;;;;10.88;72.03;100626.83;105818;1260;98488;-78
2023/05/23 02:14:18;;;;;;;13.50;7.80;;;;;;;10.85;71.72;100621.59;105350;1260;102674;-79
2023/05/23 02:17:04;;;;;;;11.70;7.50;;;;;;;10.82;71.92;100617.48;105310;1263;100103;-79
2023/05/23 02:19:50;;;;;;;11.90;8.60;;;;;;;10.79;72.25;100616.04;105156;1263;99067;-81
2023/05/23 02:22:35;;;;;;;8.50;7.70;;;;;;;10.77;72.29;100617.99;105832;1259;97983;-78
2023/05/23 02:25:21;;;;;;;13.90;8.10;;;;;;;10.74;72.33;100614.24;105826;1259;97919;-79
2023/05/23 02:28:06;;;;;;;11.10;7.60;;;;;;;10.70;72.25;100617.34;105398;1260;101872;-78
2023/05/23 02:30:51;;;;;;;13.30;7.70;;;;;;;10.65;72.35;100616.03;105875;1260;99092;-78
2023/05/23 02:33:37;;;;;;;10.10;7.80;;;;;;;10.60;72.33;100613.61;105237;1265;98969;-80
2023/05/23 02:36:22;;;;;;;8.10;7.30;;;;;;;10.56;72.28;100614.64;105230;1260;97951;-78
2023/05/23 02:39:08;;;;;;;11.60;8.00;;;;;;;10.54;72.60;100615.27;105472;1264;99253;-80
2023/05/23 02:41:54;;;;;;;12.50;8.70;;;;;;;10.52;72.50;100619.08;106034;1261;102571;-81
2023/05/23 02:44:39;;;;;;;13.80;8.50;;;;;;;10.53;72.72;100620.74;105938;1263;100364;-78
2023/05/23 02:47:25;;;;;;;11.00;8.00;;;;;;;10.51;72.47;100616.51;105177;1263;97991;-81
2023/05/23 02:50:11;;;;;;;10.00;7.70;;;;;;;10.46;72.71;100612.82;105804;1261;97902;-79
2023/05/23 02:52:57;;;;;;;11.00;8.10;;;;;;;10.42;73.28;100613.87;105424;1260;98959;-79
2023/05/23 02:55:42;;;;;;;11.80;8.90;;;;;;;10.41;73.30;100615.74;105480;1261;102025;-78
2023/05/23 02:58:28;;;;;;;13.60;9.60;;;;;;;10.41;73.52;100615.80;105243;1264;100876;-78
2023/05/23 03:01:14;;;;;;;16.80;9.10;;;;;;;10.43;73.70;100612.73;105390;1264;98354;-80
2023/05/23 03:04:00;;;;;;;10.10;8.10;;;;;;;10.44;73.67;100615.30;105773;1260;98057;-79
2023/05/23 03:06:46;;;;;;;12.40;8.20;;;;;;;10.41;73.80;100607.36;105949;1260;97988;-79
2023/05/23 03:09:32;;;;;;;11.60;9.10;;;;;;;10.40;73.99;100607.94;105294;1260;111757;-79
2023/05/23 03:12:18;;;;;;;14.50;9.10;;;;;;;10.39;74.33;100608.64;105280;1260;99058;-80
2023/05/23 03:15:04;;;;;;;12.90;9.80;;;;;;;10.40;74.41;100607.46;106042;1259;98475;-80
2023/05/23 03:17:50;;;;;;;11.20;8.50;;;;;;;10.39;74.42;100604.76;105930;1259;99244;-81
2023/05/23 03:20:35;;;;;;;11.00;8.30;;;;;;;10.39;74.90;100604.68;105998;1260;97962;-80
2023/05/23 03:23:22;;;;;;;9.80;8.60;;;;;;;10.37;74.80;100608.90;106082;1258;102652;-80
2023/05/23 03:26:08;;;;;;;12.60;8.60;;;;;;;10.38;74.51;100606.81;105908;1259;100564;-81
2023/05/23 03:28:54;;;;;;;11.30;7.70;;;;;;;10.41;74.76;100603.52;105980;1264;98344;-81
2023/05/23 03:31:40;;;;;;;10.20;7.90;;;;;;;10.43;74.77;100602.72;105870;1258;98854;-79
2023/05/23 03:34:26;;;;;;;10.00;8.60;;;;;;;10.46;74.99;100603.98;105948;1259;99194;-79
2023/05/23 03:37:11;;;;;;;11.90;7.90;;;;;;;10.49;75.54;100601.80;105373;1261;101326;-79
2023/05/23 03:39:57;;;;;;;10.60;8.20;;;;;;;10.54;75.62;100603.94;105276;1261;99232;-79
2023/05/23 03:42:42;;;;;;;14.20;10.10;;;;;;;10.59;75.73;100602.16;105087;1264;97961;-79
2023/05/23 03:45:29;;;;;;;12.50;9.30;;;;;;;10.65;76.10;100603.21;105160;1261;98076;-77
2023/05/23 03:48:15;;;;;;;16.30;10.20;;;;;;;10.70;76.32;100605.22;105250;1265;99477;-79
2023/05/23 03:51:01;;;;;;;13.40;10.10;;;;;;;10.75;76.45;100601.86;105140;1266;102268;-78
2023/05/23 03:53:47;;;;;;;14.70;10.30;;;;;;;10.81;76.56;100600.20;105757;1262;99086;-77
2023/05/23 03:56:33;;;;;;;14.60;10.70;;;;;;;10.90;76.69;100597.21;105373;1261;99269;-81
2023/05/23 03:59:19;;;;;;;15.00;10.70;;;;;;;10.99;77.16;100595.21;106088;1264;97910;-81
2023/05/23 04:02:05;;;;;;;11.80;10.40;;;;;;;11.06;77.63;100595.06;106066;1259;97966;-81
2023/05/23 04:04:52;;;;;;;15.90;9.80;;;;;;;11.13;77.92;100594.82;105228;1265;102368;-81
2023/05/23 04:07:38;;;;;;;14.60;10.10;;;;;;;11.21;78.21;100591.55;105964;1261;100713;-81
2023/05/23 04:10:24;;;;;;;12.10;9.60;;;;;;;11.29;78.96;100588.75;105812;1265;98632;-79
2023/05/23 04:13:10;;;;;;;12.50;9.30;;;;;;;11.41;79.82;100588.75;105204;1261;98031;-82
2023/05/23 04:16:00;;;;;;;14.00;10.60;;;;;;;11.55;80.41;100590.00;105282;1265;97941;-78
2023/05/23 04:18:47;;;;;;;14.40;10.50;;;;;;;11.71;80.27;100584.45;105436;1260;101352;-79
2023/05/23 04:21:33;;;;;;;15.40;10.10;;;;;;;11.85;80.29;100585.23;105487;1265;99227;-79
2023/05/23 04:24:29;;;;;;;15.80;10.80;;;;;;;11.96;80.05;100586.55;105454;1267;98725;-79
2023/05/23 04:27:14;;;;;;;12.10;10.40;;;;;;;12.07;80.15;100587.46;105843;1259;97980;-79
2023/05/23 04:30:01;;;;;;;12.40;10.30;;;;;;;12.20;80.47;100581.14;105381;1261;98541;-78
2023/05/23 04:32:47;;;;;;;12.90;10.20;;;;;;;12.32;80.25;100581.73;105261;1260;102593;-78
2023/05/23 04:35:37;;;;;;;14.10;10.70;;;;;;;12.44;79.81;100581.67;105266;1262;99399;-78
2023/05/23 04:38:24;;;;;;;13.00;10.50;;;;;;;12.57;80.20;100582.81;105251;1260;98040;-79
2023/05/23 04:41:10;;;;;;;14.80;10.20;;;;;;;12.69;80.43;100580.43;105231;1261;97970;-79
2023/05/23 04:44:13;;;;;;;14.90;10.70;;;;;;;12.82;80.33;100577.84;105406;1264;99786;-79
2023/05/23 04:47:07;;;;;;;13.00;8.80;;;;;;;12.94;79.99;100581.17;105243;1264;101333;-79
2023/05/23 04:50:15;;;;;;;14.80;10.90;;;;;;;13.08;79.96;100578.22;105430;1262;99076;-79
2023/05/23 04:53:01;;;;;;;14.50;10.00;;;;;;;13.24;79.96;100574.91;105292;1259;98988;-78
2023/05/23 04:55:48;;;;;;;15.30;10.30;;;;;;;13.39;80.00;100574.64;105207;1260;98597;-78
2023/05/23 04:58:36;;;;;;;11.30;9.50;;;;;;;13.52;79.93;100571.58;105294;1265;97736;-79
2023/05/23 05:01:24;;;;;;;15.20;10.00;;;;;;;13.65;79.75;100566.96;105210;1267;102621;-78
2023/05/23 05:04:09;;;;;;;14.00;9.80;;;;;;;13.78;79.89;100566.08;105338;1265;100188;-78
2023/05/23 05:06:55;;;;;;;12.90;9.50;;;;;;;13.91;80.05;100563.91;105291;1267;98716;-80
2023/05/23 05:09:40;;;;;;;12.30;8.00;;;;;;;14.04;79.40;100563.67;105314;1265;97974;-80
2023/05/23 05:12:27;;;;;;;15.30;8.00;;;;;;;14.19;78.77;100562.58;105328;1259;97950;-79
2023/05/23 05:15:13;;;;;;;10.60;9.20;;;;;;;14.34;78.42;100561.45;105425;1264;101338;-79
2023/05/23 05:17:59;;;;;;;14.40;9.40;;;;;;;14.47;78.19;100560.91;105430;1262;99085;-79
2023/05/23 05:20:45;;;;;;;15.80;9.40;;;;;;;14.61;77.63;100561.52;105532;1265;99122;-85
2023/05/23 05:23:32;;;;;;;10.90;8.00;;;;;;;14.75;77.13;100559.97;105326;1267;97926;-85
2023/05/23 05:26:18;;;;;;;17.30;8.90;;;;;;;14.87;76.79;100556.17;105998;1264;99620;-86
2023/05/23 05:29:04;;;;;;;12.80;7.80;;;;;;;14.99;76.06;100554.36;105859;1264;101394;-86
2023/05/23 05:31:52;;;;;;;15.10;8.70;;;;;;;15.11;76.25;100554.59;105847;1259;99221;-88
2023/05/23 05:34:37;;;;;;;15.00;8.10;;;;;;;15.23;75.80;100555.45;105337;1260;97953;-79
2023/05/23 05:37:22;;;;;;;13.70;8.20;;;;;;;15.36;75.38;100555.98;105313;1265;98070;-79
2023/05/23 05:40:09;;;;;;;17.20;9.00;;;;;;;15.50;75.14;100557.65;106179;1264;98008;-81
2023/05/23 05:42:56;;;;;;;16.30;9.20;;;;;;;15.63;74.65;100555.73;105876;1262;102682;-79
2023/05/23 05:45:43;;;;;;;14.90;8.90;;;;;;;15.76;74.32;100553.28;105462;1262;100519;-79
2023/05/23 05:48:28;;;;;;;13.20;9.10;;;;;;;15.89;74.28;100552.99;105241;1264;98597;-77
2023/05/23 05:51:16;;;;;;;10.90;8.10;;;;;;;16.02;73.91;100554.50;106014;1261;98011;-80
2023/05/23 05:54:03;;;;;;;14.40;8.30;;;;;;;16.14;73.70;100551.91;105784;1264;98396;-79
2023/05/23 05:56:49;;;;;;;15.60;7.80;;;;;;;16.30;74.23;100547.67;106183;1259;102076;-79
2023/05/23 05:59:35;;;;;;;10.00;7.10;;;;;;;16.43;73.54;100543.31;106022;1261;100066;-86
2023/05/23 06:02:21;;;;;;;16.90;7.60;;;;;;;16.58;74.03;100546.20;105598;1259;98977;-89
2023/05/23 06:05:08;;;;;;;12.20;6.90;;;;;;;16.71;73.54;100540.41;105809;1265;98587;-86
2023/05/23 06:07:54;;;;;;;10.40;7.00;;;;;;;16.84;72.78;100538.20;105748;1259;99659;-82
2023/05/23 06:10:40;;;;;;;11.40;6.70;;;;;;;16.97;72.22;100534.27;105878;1259;101901;-85
2023/05/23 06:13:26;;;;;;;14.10;6.20;;;;;;;17.10;71.26;100529.52;105857;1262;99178;-91
2023/05/23 06:16:14;;;;;;;9.70;6.40;;;;;;;17.21;70.99;100524.13;106438;1259;98311;-85
2023/05/23 06:19:00;;;;;;;13.90;7.20;;;;;;;17.34;71.21;100525.73;105903;1259;97990;-86
2023/05/23 06:21:46;;;;;;;9.90;6.70;;;;;;;17.50;70.59;100530.20;106003;1260;98044;-84
2023/05/23 06:24:32;;;;;;;7.30;5.80;;;;;;;17.62;69.46;100526.82;105655;1259;101340;-87
2023/05/23 06:27:18;;;;;;;9.60;6.10;;;;;;;17.73;68.40;100519.11;105764;1259;99198;-86
2023/05/23 06:30:04;;;;;;;9.20;5.20;;;;;;;17.85;68.77;100517.23;105469;1260;107662;-85
2023/05/23 06:32:50;;;;;;;9.20;5.30;;;;;;;17.97;68.19;100511.98;105822;1265;98047;-82
2023/05/23 06:35:37;;;;;;;7.30;5.60;;;;;;;18.10;67.19;100510.74;105902;1259;98399;-81
2023/05/23 06:38:22;;;;;;;10.00;5.10;;;;;;;18.20;66.00;100506.38;105935;1259;102251;-82
2023/05/23 06:41:08;;;;;;;7.00;5.00;;;;;;;18.31;66.02;100506.50;105829;1262;100797;-83
2023/05/23 06:43:54;;;;;;;7.00;4.60;;;;;;;18.43;65.68;100504.80;105886;1260;98945;-83
2023/05/23 06:46:44;;;;;;;7.40;4.40;;;;;;;18.55;64.90;100504.14;105905;1262;97949;-84
2023/05/23 06:49:31;;;;;;;6.70;4.80;;;;;;;18.67;64.50;100505.78;105976;1260;98743;-83
2023/05/23 06:52:16;;;;;;;8.60;4.30;;;;;;;18.79;65.24;100504.45;105868;1261;101647;-83
2023/05/23 06:55:02;;;;;;;6.00;4.40;;;;;;;18.92;64.12;100498.62;105913;1259;99095;-83
2023/05/23 06:57:50;;;;;;;8.70;4.90;;;;;;;19.03;64.43;100495.90;105904;1264;99240;-82
2023/05/23 07:00:37;;;;;;;7.70;4.90;;;;;;;19.14;64.43;100491.52;105753;1259;97858;-81
2023/05/23 07:03:40;;;;;;;7.90;3.60;;;;;;;19.26;63.25;100487.66;105755;1261;98364;-83
2023/05/23 07:06:26;;;;;;;8.10;4.00;;;;;;;19.36;61.69;100491.61;105823;1259;102618;-82
2023/05/23 07:09:12;;;;;;;10.80;4.20;;;;;;;19.44;60.67;100491.25;105880;1259;99042;-83
2023/05/23 07:11:58;;;;;;;8.40;4.00;;;;;;;19.52;60.77;100483.66;105944;1259;98431;-82
2023/05/23 07:14:44;;;;;;;5.60;3.80;;;;;;;19.62;59.99;100477.89;105844;1263;97893;-83
2023/05/23 07:17:30;;;;;;;9.80;4.70;;;;;;;19.73;60.32;100477.08;105679;1258;98577;-82
2023/05/23 07:20:16;;;;;;;3.90;3.20;;;;;;;19.84;59.45;100474.31;105842;1259;102584;-82
2023/05/23 07:23:04;;;;;;;4.40;3.10;;;;;;;19.95;58.63;100478.33;105980;1258;100443;-82
2023/05/23 07:25:49;;;;;;;7.00;3.20;;;;;;;20.04;57.51;100478.13;105878;1267;98553;-82
2023/05/23 07:28:43;;;;;;;4.00;3.00;;;;;;;20.13;56.42;100476.88;105824;1258;97954;-82
2023/05/23 07:31:29;;;;;;;4.50;3.00;;;;;;;20.23;55.70;100474.15;105895;1259;97895;-81
2023/05/23 07:34:16;;;;;;;4.00;3.10;;;;;;;20.31;54.85;100472.52;105926;1259;102253;-84
2023/05/23 07:37:10;;;;;;;6.20;2.50;;;;;;;20.40;54.68;100469.20;105929;1259;100370;-82
2023/05/23 07:39:59;;;;;;;4.50;2.60;;;;;;;20.49;53.84;100464.75;105880;1262;99003;-82
2023/05/23 07:42:45;;;;;;;4.90;2.60;;;;;;;20.58;52.74;100467.46;105752;1260;97985;-82
2023/05/23 07:45:31;;;;;;;2.70;2.40;;;;;;;20.67;52.65;100467.77;105783;1259;97964;-81
2023/05/23 07:48:18;;;;;;;4.60;2.40;;;;;;;20.77;52.74;100467.11;105821;1259;102367;-81
2023/05/23 07:51:04;;;;;;;6.30;3.00;;;;;;;20.88;52.89;100465.92;105855;1264;99123;-82
2023/05/23 07:53:49;;;;;;;5.60;2.60;;;;;;;20.98;52.62;100468.42;105881;1259;98706;-83
2023/05/23 07:56:37;;;;;;;4.50;2.70;;;;;;;21.08;52.38;100464.67;105842;1259;97890;-82
2023/05/23 07:59:23;;;;;;;4.10;2.30;;;;;;;21.19;51.66;100464.72;106000;1259;98279;-81
2023/05/23 08:02:10;;;;;;;4.80;2.60;;;;;;;21.28;51.19;100459.89;106042;1259;102066;-82
2023/05/23 08:04:56;;;;;;;4.50;2.40;;;;;;;21.35;51.13;100458.42;105919;1259;100352;-82
2023/05/23 08:07:41;;;;;;;6.10;2.80;;;;;;;21.44;50.78;100454.84;105838;1259;97916;-82
2023/05/23 08:10:28;;;;;;;5.20;2.60;;;;;;;21.50;49.51;100452.28;105938;1266;97977;-82
2023/05/23 08:13:20;;;;;;;4.50;2.90;;;;;;;21.58;48.79;100452.39;105950;1264;98059;-82
2023/05/23 08:16:26;;;;;;;4.00;2.80;;;;;;;21.63;48.16;100451.11;105873;1259;101506;-80
2023/05/23 08:19:13;;;;;;;5.80;2.50;;;;;;;21.70;48.29;100447.21;105635;1259;99182;-82
2023/05/23 08:21:58;;;;;;;4.80;2.40;;;;;;;21.74;47.90;100449.49;105650;1264;99063;-80
2023/05/23 08:24:44;;;;;;;6.10;2.70;;;;;;;21.80;47.24;100447.29;105301;1265;97982;-80
2023/05/23 08:27:30;;;;;;;4.70;2.60;;;;;;;21.86;46.94;100440.96;105924;1260;97989;-82
2023/05/23 08:30:18;;;;;;;8.90;3.10;;;;;;;21.92;46.92;100436.32;105782;1259;102030;-84
2023/05/23 08:33:05;;;;;;;5.90;2.60;;;;;;;21.99;46.97;100434.83;105609;1264;100514;-85
2023/05/23 08:35:52;;;;;;;6.00;2.80;;;;;;;22.05;46.52;100433.71;105553;1259;97970;-84
2023/05/23 08:38:38;;;;;;;5.50;2.60;;;;;;;22.10;46.01;100427.08;105836;1266;97875;-82
2023/05/23 08:41:30;;;;;;;4.00;2.30;;;;;;;22.13;45.60;100420.71;105968;1259;99153;-79
2023/05/23 08:44:20;;;;;;;2.80;2.20;;;;;;;22.21;45.51;100423.48;106093;1259;101332;-81
2023/05/23 08:47:09;;;;;;;8.40;2.40;;;;;;;22.29;45.00;100424.15;106068;1259;99073;-80
2023/05/23 08:50:16;;;;;;;4.60;2.50;;;;;;;22.36;44.62;100419.09;105817;1264;98546;-80
2023/05/23 08:53:07;;;;;;;5.60;2.70;;;;;;;22.42;43.87;100422.08;105630;1262;97946;-82
2023/05/23 08:55:57;;;;;;;3.80;2.80;;;;;;;22.48;43.81;100420.23;105749;1260;98579;-84
2023/05/23 08:58:46;;;;;;;5.70;2.70;;;;;;;22.54;43.66;100419.70;105963;1259;101976;-80
2023/05/23 09:01:34;;;;;;;5.40;2.60;;;;;;;22.59;43.94;100417.17;105523;1259;99638;-80
2023/05/23 09:04:21;;;;;;;5.40;2.60;;;;;;;22.66;43.91;100412.60;105884;1259;99001;-83
2023/05/23 09:07:15;;;;;;;4.40;2.70;;;;;;;22.77;43.05;100414.04;105721;1259;97903;-80
2023/05/23 09:10:06;;;;;;;5.90;2.30;;;;;;;22.88;43.45;100415.73;105841;1263;98473;-80
2023/05/23 09:12:51;;;;;;;11.80;3.00;;;;;;;22.96;42.67;100419.19;105806;1259;102333;-80
2023/05/23 09:15:37;;;;;;;2.50;2.20;;;;;;;22.99;42.62;100413.61;105850;1262;99080;-81
2023/05/23 09:18:25;;;;;;;4.00;2.70;;;;;;;23.00;42.65;100413.08;105904;1259;98175;-81
2023/05/23 09:21:12;;;;;;;4.00;2.60;;;;;;;22.96;41.98;100411.48;105924;1262;97924;-80
2023/05/23 09:24:04;;;;;;;5.20;2.40;;;;;;;22.90;41.36;100410.44;105784;1262;97919;-80
2023/05/23 09:26:50;;;;;;;7.00;2.40;;;;;;;22.88;40.70;100412.80;105996;1263;102707;-78
2023/05/23 09:29:40;;;;;;;5.00;2.60;;;;;;;22.91;40.84;100411.77;105201;1259;100370;-79
2023/05/23 09:32:26;;;;;;;5.00;2.30;;;;;;;23.01;41.20;100407.83;105348;1259;98990;-80
2023/05/23 09:35:12;;;;;;;2.20;1.90;;;;;;;23.11;41.02;100405.33;105352;1259;98711;-81
2023/05/23 09:37:58;;;;;;;4.00;2.80;;;;;;;23.21;40.32;100398.64;105389;1260;98448;-80
2023/05/23 09:40:44;;;;;;;7.40;3.40;;;;;;;23.27;40.45;100401.65;105406;1260;101362;-80
2023/05/23 09:43:30;;;;;;;4.10;2.10;;;;;;;23.31;39.98;100399.36;105445;1264;99079;-81
2023/05/23 09:46:16;;;;;;;3.50;2.40;;;;;;;23.36;39.76;100396.20;105438;1259;98948;-80
2023/05/23 09:49:14;;;;;;;8.00;2.30;;;;;;;23.44;39.88;100397.94;105736;1265;97974;-80
2023/05/23 09:52:56;;;;;;;5.50;2.30;;;;;;;23.52;39.43;100393.98;106405;1253;97843;31
2023/05/23 09:55:41;;;;;;;9.10;2.70;;;;;;;23.62;39.28;100390.42;105668;1267;102671;-80
2023/05/23 09:58:31;;;;;;;7.00;2.40;;;;;;;23.72;40.12;100390.55;105555;1270;99777;-81
2023/05/23 10:01:17;;;;;;;3.70;2.00;;;;;;;23.80;39.03;100389.92;105545;1267;106248;-81
2023/05/23 10:04:04;;;;;;;8.10;2.60;;;;;;;23.86;39.21;100388.70;105587;1270;98736;-80
2023/05/23 10:06:56;;;;;;;4.50;2.40;;;;;;;23.92;39.37;100395.80;105526;1266;98046;-81
2023/05/23 10:09:49;;;;;;;3.60;2.10;;;;;;;23.98;39.41;100391.89;105416;1270;101394;-81
2023/05/23 10:12:43;;;;;;;4.80;2.40;;;;;;;24.06;39.23;100389.91;105459;1271;99125;-80
2023/05/23 10:15:34;;;;;;;4.10;2.40;;;;;;;24.10;39.10;100388.14;105396;1267;98246;-80
2023/05/23 10:18:25;;;;;;;4.30;2.60;;;;;;;24.10;39.16;100385.79;105366;1269;98102;-80
2023/05/23 10:21:14;;;;;;;5.50;2.80;;;;;;;24.16;39.41;100389.70;105298;1267;97895;-80
2023/05/23 10:24:00;;;;;;;2.90;2.10;;;;;;;24.26;38.86;100383.91;105495;1267;102665;-81
2023/05/23 10:26:45;;;;;;;7.70;2.50;;;;;;;24.36;39.22;100380.83;105260;1267;99232;-81
2023/05/23 10:29:32;;;;;;;3.70;2.20;;;;;;;24.46;38.95;100382.14;105212;1267;98813;-79
2023/05/23 10:32:18;;;;;;;7.40;4.90;;;;;;;24.46;38.47;100380.39;105260;1270;97979;-82
2023/05/23 10:35:17;;;;;;;9.60;5.80;;;;;;;24.42;38.70;100378.34;105294;1269;99675;-83
2023/05/23 10:38:30;;;;;;;5.20;2.80;;;;;;;24.38;38.80;100376.55;105361;1270;102640;-81
2023/05/23 10:41:30;;;;;;;3.10;2.00;;;;;;;24.37;38.68;100379.51;105256;1270;99086;-82
2023/05/23 10:44:18;;;;;;;5.90;2.50;;;;;;;24.37;38.45;100379.96;105418;1267;99383;-82
2023/05/23 10:47:04;;;;;;;3.10;2.50;;;;;;;24.44;38.94;100377.99;105444;1267;97969;-81
2023/05/23 10:49:54;;;;;;;3.50;2.40;;;;;;;24.56;38.79;100371.02;105514;1270;97886;-82
2023/05/23 10:52:41;;;;;;;4.80;2.10;;;;;;;24.63;39.12;100371.35;105604;1267;101379;-82
2023/05/23 10:55:31;;;;;;;3.80;2.50;;;;;;;24.70;39.28;100371.41;105677;1269;100810;-82
2023/05/23 10:58:20;;;;;;;5.10;2.50;;;;;;;24.76;38.75;100369.15;105590;1270;98530;-81
2023/05/23 11:01:08;;;;;;;5.10;2.80;;;;;;;24.76;38.34;100368.51;105401;1270;99209;-81
2023/05/23 11:03:54;;;;;;;4.50;2.50;;;;;;;24.78;38.33;100371.29;105413;1267;99643;-82
2023/05/23 11:06:43;;;;;;;2.30;2.10;;;;;;;24.82;38.31;100368.35;105413;1270;102713;-81
2023/05/23 11:09:29;;;;;;;4.50;2.80;;;;;;;24.84;38.26;100359.94;105467;1267;99787;-79
2023/05/23 11:12:15;;;;;;;3.50;2.60;;;;;;;24.79;38.24;100359.48;104787;1270;100196;-79
2023/05/23 11:15:00;;;;;;;3.80;2.40;;;;;;;24.73;37.56;100359.18;105015;1267;97785;-79
2023/05/23 11:17:54;;;;;;;5.60;2.70;;;;;;;24.75;38.04;100356.23;104996;1267;99587;-80
2023/05/23 11:20:43;;;;;;;3.50;2.10;;;;;;;24.78;38.78;100354.08;105247;1278;110599;-80
2023/05/23 11:23:42;;;;;;;7.70;2.50;;;;;;;24.85;39.71;100348.98;105261;1265;99117;-80
2023/05/23 11:26:28;;;;;;;5.20;2.30;;;;;;;25.00;39.45;100345.23;105310;1267;98985;-81
2023/05/23 11:29:15;;;;;;;4.20;2.40;;;;;;;25.14;38.80;100342.73;105383;1270;98603;-80
2023/05/23 11:32:11;;;;;;;4.40;2.20;;;;;;;25.25;38.24;100339.23;105416;1269;97891;-79
2023/05/23 11:35:00;;;;;;;8.20;2.70;;;;;;;25.36;38.06;100342.30;105468;1268;102583;-81
2023/05/23 11:37:46;;;;;;;3.10;2.20;;;;;;;25.45;37.69;100343.59;105325;1266;99185;-80
2023/05/23 11:40:40;;;;;;;3.50;2.40;;;;;;;25.50;37.06;100340.77;105187;1270;98654;-79
2023/05/23 11:43:25;;;;;;;5.10;2.30;;;;;;;25.42;36.22;100334.64;105362;1267;98057;-80
2023/05/23 11:46:10;;;;;;;3.30;2.40;;;;;;;25.36;36.03;100330.90;105525;1266;97894;-80
2023/05/23 11:48:56;;;;;;;4.50;2.20;;;;;;;25.36;36.23;100331.66;105385;1267;102505;-80
2023/05/23 11:51:42;;;;;;;3.30;2.20;;;;;;;25.39;36.40;100325.88;105513;1270;100131;-80
2023/05/23 11:54:27;;;;;;;5.20;2.70;;;;;;;25.42;37.01;100328.23;105470;1265;98303;-80
2023/05/23 11:57:13;;;;;;;3.80;2.80;;;;;;;25.46;37.43;100326.43;104919;1270;97993;-81
2023/05/23 11:59:59;;;;;;;3.80;2.50;;;;;;;25.46;36.59;100324.45;104949;1267;99657;-80
2023/05/23 12:02:47;;;;;;;5.00;2.50;;;;;;;25.44;36.53;100323.87;104985;1269;101983;-81
2023/05/23 12:05:32;;;;;;;5.70;2.00;;;;;;;25.45;37.51;100323.53;105157;1267;100079;-79
2023/05/23 12:08:18;;;;;;;4.60;2.20;;;;;;;25.43;36.54;100319.45;104934;1270;98989;-80
2023/05/23 12:11:05;;;;;;;5.30;2.30;;;;;;;25.36;36.59;100315.77;104944;1270;97972;-80
2023/05/23 12:13:52;;;;;;;5.10;2.60;;;;;;;25.27;36.71;100311.13;104956;1266;99653;-81
2023/05/23 12:16:37;;;;;;;6.00;2.30;;;;;;;25.16;36.38;100312.57;104946;1266;101399;-80
2023/05/23 12:19:23;;;;;;;4.30;2.80;;;;;;;25.06;36.07;100314.22;104982;1265;99087;-80
2023/05/23 12:22:08;;;;;;;3.70;2.60;;;;;;;24.99;36.25;100314.44;104948;1275;99008;-79
2023/05/23 12:24:55;;;;;;;4.60;2.20;;;;;;;24.95;36.39;100316.35;105011;1269;98037;-80
2023/05/23 12:27:42;;;;;;;6.30;2.20;;;;;;;24.93;36.32;100312.47;104978;1271;98536;-80
2023/05/23 12:30:28;;;;;;;3.10;2.40;;;;;;;24.97;36.42;100312.20;104994;1269;102621;-79
2023/05/23 12:33:13;;;;;;;9.90;2.90;;;;;;;25.04;36.45;100308.30;104964;1269;99715;-80
2023/05/23 12:35:59;;;;;;;2.70;2.10;;;;;;;25.14;36.70;100304.04;104996;1269;99391;-80
2023/05/23 12:38:44;;;;;;;9.40;2.70;;;;;;;25.23;36.33;100302.56;104980;1265;97978;-80
2023/05/23 12:41:34;;;;;;;6.70;3.00;;;;;;;25.29;35.64;100301.46;105335;1270;99414;-80
2023/05/23 12:44:20;;;;;;;6.00;2.30;;;;;;;25.39;35.85;100299.55;105532;1270;101969;-80
2023/05/23 12:47:05;;;;;;;3.30;2.70;;;;;;;25.53;36.73;100299.63;105552;1270;99100;-80